createdAt,value
2022-08-03T00:01:45.723Z,101394.63
2022-08-03T00:04:13.968Z,101403.63
2022-08-03T00:06:42.005Z,101397.41
2022-08-03T00:09:10.417Z,101389.41
2022-08-03T00:11:38.591Z,101388.34
2022-08-03T00:14:08.854Z,101388.34
2022-08-03T00:16:38.558Z,101388.66
2022-08-03T00:19:06.624Z,101384.31
2022-08-03T00:21:34.661Z,101390.47
2022-08-03T00:24:02.766Z,101390.88
2022-08-03T00:26:31.779Z,101391.09
2022-08-03T00:28:59.910Z,101386.75
2022-08-03T00:31:51.444Z,101378.19
2022-08-03T00:34:17.380Z,101388.13
2022-08-03T00:36:57.922Z,101383.00
2022-08-03T00:39:25.939Z,101386.66
2022-08-03T00:41:54.140Z,101387.25
2022-08-03T00:44:22.166Z,101391.63
2022-08-03T00:46:50.288Z,101390.56
2022-08-03T00:49:19.769Z,101380.84
2022-08-03T00:51:48.867Z,101384.00
2022-08-03T00:54:17.243Z,101384.41
2022-08-03T00:57:00.066Z,101376.72
2022-08-03T00:59:28.803Z,101377.69
2022-08-03T01:01:57.196Z,101372.44
2022-08-03T01:04:26.762Z,101366.25
2022-08-03T01:07:04.960Z,101366.19
2022-08-03T01:09:48.642Z,101371.50
2022-08-03T01:12:23.592Z,101369.13
2022-08-03T01:14:59.737Z,101366.09
2022-08-03T01:17:35.564Z,101356.22
2022-08-03T01:20:08.564Z,101364.47
2022-08-03T01:22:50.751Z,101355.69
2022-08-03T01:25:33.958Z,101366.13
2022-08-03T01:28:21.159Z,101368.13
2022-08-03T01:30:53.873Z,101362.22
2022-08-03T01:33:23.798Z,101363.22
2022-08-03T01:36:00.169Z,101352.53
2022-08-03T01:38:32.398Z,101352.03
2022-08-03T01:41:05.755Z,101357.94
2022-08-03T01:44:27.652Z,101357.34
2022-08-03T01:46:26.211Z,101361.00
2022-08-03T01:48:56.334Z,101364.81
2022-08-03T01:51:24.634Z,101355.41
2022-08-03T01:54:14.691Z,101347.97
2022-08-03T01:56:46.569Z,101347.97
2022-08-03T01:59:17.680Z,101347.88
2022-08-03T02:02:27.795Z,101346.59
2022-08-03T02:04:39.687Z,101348.72
2022-08-03T02:07:09.066Z,101336.94
2022-08-03T02:09:40.044Z,101339.19
2022-08-03T02:12:10.377Z,101343.59
2022-08-03T02:14:40.487Z,101349.19
2022-08-03T02:17:11.587Z,101346.50
2022-08-03T02:19:40.905Z,101345.50
2022-08-03T02:22:13.212Z,101344.41
2022-08-03T02:24:41.706Z,101340.78
2022-08-03T02:27:21.250Z,101348.50
2022-08-03T02:29:56.215Z,101353.84
2022-08-03T02:32:31.673Z,101348.09
2022-08-03T02:35:01.785Z,101344.03
2022-08-03T02:37:35.446Z,101344.19
2022-08-03T02:40:07.241Z,101339.69
2022-08-03T02:42:38.053Z,101337.44
2022-08-03T02:45:12.482Z,101340.28
2022-08-03T02:47:54.035Z,101331.28
2022-08-03T02:50:25.576Z,101334.69
2022-08-03T02:52:56.188Z,101333.84
2022-08-03T02:55:27.403Z,101330.66
2022-08-03T02:57:56.890Z,101331.34
2022-08-03T03:00:30.842Z,101332.03
2022-08-03T03:03:04.055Z,101322.06
2022-08-03T03:05:54.547Z,101326.00
2022-08-03T03:08:26.885Z,101327.13
2022-08-03T03:10:59.218Z,101326.69
2022-08-03T03:13:29.346Z,101335.25
2022-08-03T03:16:00.762Z,101324.31
2022-08-03T03:18:32.134Z,101328.81
2022-08-03T03:21:02.635Z,101327.66
2022-08-03T03:23:31.892Z,101330.78
2022-08-03T03:26:02.465Z,101330.78
2022-08-03T03:28:31.728Z,101331.59
2022-08-03T03:31:00.451Z,101324.88
2022-08-03T03:33:28.821Z,101324.63
2022-08-03T03:35:59.757Z,101322.78
2022-08-03T03:38:27.999Z,101325.88
2022-08-03T03:40:56.795Z,101314.22
2022-08-03T03:43:25.432Z,101323.34
2022-08-03T03:45:54.029Z,101318.44
2022-08-03T03:48:22.312Z,101321.78
2022-08-03T03:50:51.552Z,101324.59
2022-08-03T03:53:21.060Z,101322.38
2022-08-03T03:56:01.218Z,101324.34
2022-08-03T03:58:32.198Z,101326.88
2022-08-03T04:01:00.667Z,101331.63
2022-08-03T04:03:29.136Z,101326.31
2022-08-03T04:06:15.339Z,101326.00
2022-08-03T04:09:02.490Z,101324.31
2022-08-03T04:11:37.418Z,101326.84
2022-08-03T04:14:10.208Z,101325.44
2022-08-03T04:16:43.607Z,101325.72
2022-08-03T04:19:22.610Z,101325.59
2022-08-03T04:21:57.058Z,101336.38
2022-08-03T04:24:32.051Z,101330.91
2022-08-03T04:27:01.986Z,101331.78
2022-08-03T04:29:34.363Z,101332.75
2022-08-03T04:32:03.303Z,101328.81
2022-08-03T04:34:32.048Z,101328.25
2022-08-03T04:37:03.051Z,101332.59
2022-08-03T04:39:34.010Z,101334.88
2022-08-03T04:42:08.752Z,101340.03
2022-08-03T04:44:39.049Z,101336.13
2022-08-03T04:47:07.283Z,101332.72
2022-08-03T04:49:37.482Z,101330.22
2022-08-03T04:52:06.690Z,101324.75
2022-08-03T04:54:42.818Z,101345.06
2022-08-03T04:57:23.305Z,101331.63
2022-08-03T05:00:01.021Z,101341.97
2022-08-03T05:02:31.986Z,101346.75
2022-08-03T05:05:00.263Z,101346.31
2022-08-03T05:07:34.076Z,101348.03
2022-08-03T05:10:14.833Z,101344.78
2022-08-03T05:12:44.404Z,101342.69
2022-08-03T05:15:12.996Z,101343.41
2022-08-03T05:17:41.266Z,101351.09
2022-08-03T05:20:10.594Z,101347.31
2022-08-03T05:22:38.639Z,101349.69
2022-08-03T05:25:08.855Z,101353.75
2022-08-03T05:27:36.884Z,101354.31
2022-08-03T05:30:31.110Z,101357.25
2022-08-03T05:32:54.508Z,101352.59
2022-08-03T05:36:01.934Z,101360.72
2022-08-03T05:38:13.422Z,101355.81
2022-08-03T05:40:57.290Z,101354.94
2022-08-03T05:43:26.120Z,101355.03
2022-08-03T05:46:11.596Z,101358.81
2022-08-03T05:48:40.860Z,101355.41
2022-08-03T05:51:11.673Z,101352.69
2022-08-03T05:53:40.474Z,101359.84
2022-08-03T05:56:13.758Z,101355.44
2022-08-03T05:58:44.515Z,101360.75
2022-08-03T06:01:12.678Z,101360.84
2022-08-03T06:03:40.829Z,101365.25
2022-08-03T06:06:09.054Z,101362.53
2022-08-03T06:08:37.204Z,101359.94
2022-08-03T06:11:05.225Z,101371.22
2022-08-03T06:13:35.007Z,101374.53
2022-08-03T06:16:03.338Z,101369.50
2022-08-03T06:18:31.313Z,101376.28
2022-08-03T06:21:14.891Z,101365.22
2022-08-03T06:23:53.179Z,101376.19
2022-08-03T06:26:23.143Z,101376.56
2022-08-03T06:28:54.260Z,101380.00
2022-08-03T06:31:24.155Z,101379.88
2022-08-03T06:34:32.154Z,101379.78
2022-08-03T06:36:40.810Z,101375.84
2022-08-03T06:39:09.137Z,101388.94
2022-08-03T06:41:38.127Z,101386.31
2022-08-03T06:44:14.077Z,101391.34
2022-08-03T06:46:43.315Z,101386.19
2022-08-03T06:49:11.476Z,101395.44
2022-08-03T06:52:06.089Z,101391.63
2022-08-03T06:54:32.580Z,101391.66
2022-08-03T06:57:01.167Z,101395.03
2022-08-03T07:00:09.680Z,101388.81
2022-08-03T07:02:20.403Z,101389.88
2022-08-03T07:04:48.929Z,101385.66
2022-08-03T07:07:17.448Z,101392.03
2022-08-03T07:09:56.410Z,101388.16
2022-08-03T07:12:26.291Z,101389.84
2022-08-03T07:15:00.261Z,101383.13
2022-08-03T07:17:29.070Z,101385.63
2022-08-03T07:19:57.126Z,101394.13
2022-08-03T07:22:25.420Z,101389.56
2022-08-03T07:27:21.417Z,101387.84
2022-08-03T07:29:49.505Z,101390.25
2022-08-03T07:32:19.336Z,101392.53
2022-08-03T07:34:47.750Z,101392.53
2022-08-03T07:37:15.778Z,101389.16
2022-08-03T07:39:43.910Z,101388.56
2022-08-03T07:42:12.083Z,101391.97
2022-08-03T07:44:42.187Z,101390.69
2022-08-03T07:47:10.290Z,101388.06
2022-08-03T07:49:51.848Z,101391.03
2022-08-03T07:52:37.589Z,101396.94
2022-08-03T07:55:07.433Z,101392.97
2022-08-03T07:57:36.475Z,101390.91
2022-08-03T08:00:07.505Z,101391.19
2022-08-03T08:02:35.724Z,101389.06
2022-08-03T08:05:06.170Z,101395.44
2022-08-03T08:07:34.353Z,101391.97
2022-08-03T08:10:02.402Z,101396.72
2022-08-03T08:12:30.411Z,101396.41
2022-08-03T08:14:58.522Z,101401.13
2022-08-03T08:17:26.584Z,101394.63
2022-08-03T08:19:54.766Z,101395.16
2022-08-03T08:22:30.494Z,101391.22
2022-08-03T08:25:01.279Z,101390.84
2022-08-03T08:28:29.547Z,101397.34
2022-08-03T08:30:20.247Z,101396.25
2022-08-03T08:32:48.847Z,101394.03
2022-08-03T08:35:18.002Z,101397.03
2022-08-03T08:37:51.175Z,101401.50
2022-08-03T08:40:22.785Z,101389.94
2022-08-03T08:42:58.450Z,101392.72
2022-08-03T08:45:27.533Z,101386.59
2022-08-03T08:48:01.895Z,101381.72
2022-08-03T08:50:31.992Z,101386.31
2022-08-03T08:53:04.744Z,101389.53
2022-08-03T08:55:56.952Z,101392.25
2022-08-03T08:58:24.312Z,101399.56
2022-08-03T09:00:52.776Z,101396.03
2022-08-03T09:03:29.154Z,101394.97
2022-08-03T09:06:01.260Z,101392.88
2022-08-03T09:08:32.955Z,101389.16
2022-08-03T09:11:01.317Z,101394.50
2022-08-03T09:13:30.605Z,101391.63
2022-08-03T09:16:15.363Z,101388.22
2022-08-03T09:18:44.376Z,101388.59
2022-08-03T09:21:31.855Z,101390.19
2022-08-03T09:24:07.139Z,101384.88
2022-08-03T09:26:38.807Z,101383.75
2022-08-03T09:29:13.891Z,101377.75
2022-08-03T09:31:45.081Z,101387.06
2022-08-03T09:34:14.868Z,101386.47
2022-08-03T09:36:44.779Z,101383.75
2022-08-03T09:39:16.022Z,101389.53
2022-08-03T09:41:45.522Z,101385.94
2022-08-03T09:44:24.640Z,101394.53
2022-08-03T09:46:57.258Z,101392.03
2022-08-03T09:49:26.177Z,101389.09
2022-08-03T09:52:31.296Z,101382.22
2022-08-03T09:54:44.689Z,101385.88
2022-08-03T09:57:23.971Z,101385.69
2022-08-03T10:00:01.869Z,101397.97
2022-08-03T10:02:33.449Z,101393.72
2022-08-03T10:05:01.484Z,101395.44
2022-08-03T10:07:29.492Z,101394.56
2022-08-03T10:10:31.872Z,101390.59
2022-08-03T10:12:49.295Z,101385.72
2022-08-03T10:16:22.327Z,101388.03
2022-08-03T10:18:06.235Z,101382.66
2022-08-03T10:20:41.246Z,101379.84
2022-08-03T10:23:09.982Z,101382.69
2022-08-03T10:25:42.154Z,101381.63
2022-08-03T10:28:16.161Z,101376.53
2022-08-03T10:30:49.040Z,101371.66
2022-08-03T10:33:51.082Z,101375.94
2022-08-03T10:36:10.216Z,101371.78
2022-08-03T10:38:41.581Z,101370.78
2022-08-03T10:41:12.161Z,101361.97
2022-08-03T10:43:49.039Z,101359.06
2022-08-03T10:46:20.691Z,101362.88
2022-08-03T10:48:51.733Z,101361.41
2022-08-03T10:51:21.229Z,101360.34
2022-08-03T10:53:54.530Z,101355.78
2022-08-03T10:57:14.347Z,101359.09
2022-08-03T11:00:00.548Z,101350.56
2022-08-03T11:03:11.201Z,101355.41
2022-08-03T11:05:41.968Z,101352.31
2022-08-03T11:08:32.765Z,101341.03
2022-08-03T11:11:23.610Z,101336.25
2022-08-03T11:14:02.845Z,101337.09
2022-08-03T11:16:32.533Z,101327.66
2022-08-03T11:19:02.990Z,101334.69
2022-08-03T11:22:00.011Z,101337.09
2022-08-03T11:25:01.986Z,101341.34
2022-08-03T11:27:31.917Z,101336.31
2022-08-03T11:30:04.979Z,101333.78
2022-08-03T11:33:01.661Z,101324.94
2022-08-03T11:35:31.879Z,101321.09
2022-08-03T11:38:08.251Z,101322.75
2022-08-03T11:40:38.792Z,101317.28
2022-08-03T11:43:08.542Z,101327.47
2022-08-03T11:45:39.211Z,101331.47
2022-08-03T11:48:17.911Z,101327.66
2022-08-03T11:50:46.500Z,101325.09
2022-08-03T11:53:19.622Z,101336.69
2022-08-03T11:55:50.170Z,101339.75
2022-08-03T11:59:11.043Z,101336.34
2022-08-03T12:01:11.452Z,101339.19
2022-08-03T12:03:39.580Z,101345.59
2022-08-03T12:06:11.963Z,101343.72
2022-08-03T12:08:40.689Z,101347.81
2022-08-03T12:11:11.435Z,101343.41
2022-08-03T12:14:26.825Z,101342.06
2022-08-03T12:16:31.100Z,101342.44
2022-08-03T12:19:00.549Z,101344.91
2022-08-03T12:21:29.115Z,101340.25
2022-08-03T12:24:01.223Z,101338.91
2022-08-03T12:26:29.294Z,101334.16
2022-08-03T12:28:57.533Z,101342.50
2022-08-03T12:31:25.924Z,101341.59
2022-08-03T12:34:02.886Z,101343.47
2022-08-03T12:36:32.418Z,101338.91
2022-08-03T12:39:02.485Z,101340.00
2022-08-03T12:41:34.174Z,101340.25
2022-08-03T12:44:04.202Z,101335.88
2022-08-03T12:46:34.188Z,101333.00
2022-08-03T12:49:08.684Z,101338.34
2022-08-03T12:51:38.645Z,101344.34
2022-08-03T12:54:07.320Z,101336.41
2022-08-03T12:56:35.784Z,101346.06
2022-08-03T12:59:32.353Z,101336.69
2022-08-03T13:02:09.370Z,101339.97
2022-08-03T13:04:39.291Z,101343.56
2022-08-03T13:07:14.131Z,101340.72
2022-08-03T13:09:44.246Z,101341.56
2022-08-03T13:12:14.173Z,101338.09
2022-08-03T13:14:42.847Z,101331.50
2022-08-03T13:17:11.288Z,101329.53
2022-08-03T13:19:41.432Z,101329.19
2022-08-03T13:22:13.579Z,101324.88
2022-08-03T13:24:42.052Z,101330.91
2022-08-03T13:28:11.075Z,101326.50
2022-08-03T13:29:59.100Z,101326.00
2022-08-03T13:32:27.207Z,101321.28
2022-08-03T13:34:56.613Z,101319.88
2022-08-03T13:37:24.975Z,101319.84
2022-08-03T13:39:58.932Z,101331.38
2022-08-03T13:42:30.000Z,101326.91
2022-08-03T13:44:58.392Z,101330.34
2022-08-03T13:47:26.553Z,101326.19
2022-08-03T13:50:00.072Z,101324.72
2022-08-03T13:52:35.270Z,101327.25
2022-08-03T13:55:05.052Z,101322.94
2022-08-03T13:58:02.507Z,101320.97
2022-08-03T14:00:28.190Z,101322.31
2022-08-03T14:03:05.069Z,101318.91
2022-08-03T14:05:38.313Z,101324.38
2022-08-03T14:08:07.826Z,101312.78
2022-08-03T14:10:38.595Z,101321.28
2022-08-03T14:13:07.321Z,101316.56
2022-08-03T14:15:38.172Z,101325.66
2022-08-03T14:18:11.946Z,101324.38
2022-08-03T14:20:50.236Z,101316.91
2022-08-03T14:23:22.909Z,101317.16
2022-08-03T14:25:52.288Z,101314.38
2022-08-03T14:28:23.383Z,101317.19
2022-08-03T14:30:52.450Z,101308.13
2022-08-03T14:33:20.523Z,101310.03
2022-08-03T14:35:50.145Z,101306.16
2022-08-03T14:38:18.888Z,101299.06
2022-08-03T14:40:47.330Z,101297.44
2022-08-03T14:43:16.531Z,101291.94
2022-08-03T14:45:45.189Z,101290.31
2022-08-03T14:49:02.262Z,101287.00
2022-08-03T14:51:02.883Z,101284.69
2022-08-03T14:53:30.892Z,101277.06
2022-08-03T14:55:58.972Z,101271.59
2022-08-03T14:58:27.182Z,101273.25
2022-08-03T15:00:56.717Z,101281.22
2022-08-03T15:03:26.005Z,101276.50
2022-08-03T15:05:55.571Z,101278.59
2022-08-03T15:08:26.875Z,101274.13
2022-08-03T15:10:55.591Z,101268.59
2022-08-03T15:13:25.363Z,101267.88
2022-08-03T15:15:53.467Z,101261.53
2022-08-03T15:18:21.464Z,101265.66
2022-08-03T15:20:50.862Z,101268.31
2022-08-03T15:23:19.415Z,101279.09
2022-08-03T15:26:04.210Z,101258.81
2022-08-03T15:28:37.680Z,101257.69
2022-08-03T15:31:06.514Z,101260.22
2022-08-03T15:33:35.293Z,101258.72
2022-08-03T15:36:04.029Z,101265.00
2022-08-03T15:38:32.374Z,101257.63
2022-08-03T15:41:01.733Z,101259.53
2022-08-03T15:43:29.814Z,101265.56
2022-08-03T15:46:27.793Z,101254.34
2022-08-03T15:48:46.786Z,101247.63
2022-08-03T15:51:15.184Z,101253.97
2022-08-03T15:53:43.283Z,101250.63
2022-08-03T15:56:18.132Z,101259.94
2022-08-03T15:59:04.578Z,101250.25
2022-08-03T16:01:35.639Z,101255.28
2022-08-03T16:04:03.742Z,101255.47
2022-08-03T16:06:35.085Z,101249.56
2022-08-03T16:09:03.954Z,101252.63
2022-08-03T16:11:33.488Z,101244.66
2022-08-03T16:14:11.941Z,101244.44
2022-08-03T16:16:49.255Z,101240.75
2022-08-03T16:19:17.458Z,101242.84
2022-08-03T16:21:48.849Z,101242.78
2022-08-03T16:24:27.525Z,101239.75
2022-08-03T16:26:57.914Z,101241.63
2022-08-03T16:29:28.642Z,101245.22
2022-08-03T16:31:56.575Z,101239.31
2022-08-03T16:34:24.834Z,101237.75
2022-08-03T16:36:54.661Z,101242.94
2022-08-03T16:39:22.847Z,101235.78
2022-08-03T16:41:54.360Z,101236.09
2022-08-03T16:44:32.133Z,101233.53
2022-08-03T16:47:00.737Z,101237.91
2022-08-03T16:49:53.763Z,101237.44
2022-08-03T16:52:17.909Z,101230.78
2022-08-03T16:54:53.054Z,101237.22
2022-08-03T16:57:58.189Z,101233.31
2022-08-03T17:00:34.101Z,101233.25
2022-08-03T17:03:04.542Z,101228.63
2022-08-03T17:05:47.077Z,101228.81
2022-08-03T17:08:15.831Z,101220.75
2022-08-03T17:10:45.449Z,101228.00
2022-08-03T17:13:20.738Z,101227.03
2022-08-03T17:15:58.203Z,101223.47
2022-08-03T17:18:33.150Z,101228.00
2022-08-03T17:21:05.088Z,101225.03
2022-08-03T17:23:42.254Z,101229.06
2022-08-03T17:26:21.212Z,101228.22
2022-08-03T17:28:57.395Z,101225.63
2022-08-03T17:31:31.843Z,101232.13
2022-08-03T17:34:04.471Z,101232.38
2022-08-03T17:37:02.227Z,101223.16
2022-08-03T17:39:36.162Z,101229.06
2022-08-03T17:42:30.323Z,101227.88
2022-08-03T17:45:01.924Z,101223.97
2022-08-03T17:47:42.615Z,101215.69
2022-08-03T17:50:24.047Z,101219.34
2022-08-03T17:53:07.376Z,101225.28
2022-08-03T17:55:55.778Z,101225.91
2022-08-03T17:58:39.716Z,101228.97
2022-08-03T18:02:06.122Z,101227.94
2022-08-03T18:04:29.808Z,101226.38
2022-08-03T18:07:00.521Z,101227.78
2022-08-03T18:10:03.864Z,101231.59
2022-08-03T18:12:38.414Z,101226.38
2022-08-03T18:15:08.690Z,101225.50
2022-08-03T18:18:02.186Z,101223.13
2022-08-03T18:20:41.066Z,101226.69
2022-08-03T18:23:24.801Z,101223.53
2022-08-03T18:26:01.053Z,101226.94
2022-08-03T18:28:29.666Z,101215.69
2022-08-03T18:30:58.612Z,101223.63
2022-08-03T18:34:19.155Z,101229.00
2022-08-03T18:36:29.437Z,101222.03
2022-08-03T18:39:01.793Z,101220.44
2022-08-03T18:41:33.594Z,101224.66
2022-08-03T18:44:09.594Z,101227.69
2022-08-03T18:47:07.064Z,101230.06
2022-08-03T18:49:43.206Z,101224.63
2022-08-03T18:52:17.953Z,101224.63
2022-08-03T18:55:01.078Z,101217.13
2022-08-03T18:57:40.809Z,101222.63
2022-08-03T19:00:14.118Z,101225.63
2022-08-03T19:02:49.225Z,101229.00
2022-08-03T19:05:20.426Z,101223.09
2022-08-03T19:10:57.942Z,101227.88
2022-08-03T19:13:40.413Z,101228.34
2022-08-03T19:16:18.780Z,101223.78
2022-08-03T19:18:49.942Z,101229.28
2022-08-03T19:21:18.555Z,101239.53
2022-08-03T19:23:49.867Z,101228.31
2022-08-03T19:26:30.963Z,101228.34
2022-08-03T19:29:00.095Z,101227.97
2022-08-03T19:31:30.745Z,101233.19
2022-08-03T19:34:00.342Z,101236.31
2022-08-03T19:36:31.401Z,101225.16
2022-08-03T19:39:03.267Z,101234.31
2022-08-03T19:41:42.450Z,101241.59
2022-08-03T19:44:12.507Z,101243.25
2022-08-03T19:46:52.841Z,101244.72
2022-08-03T19:49:24.312Z,101248.47
2022-08-03T19:52:15.218Z,101255.53
2022-08-03T19:54:53.672Z,101247.41
2022-08-03T19:57:25.143Z,101243.69
2022-08-03T19:59:54.892Z,101242.59
2022-08-03T20:02:26.767Z,101240.09
2022-08-03T20:04:57.349Z,101237.59
2022-08-03T20:07:26.350Z,101247.50
2022-08-03T20:09:57.025Z,101240.25
2022-08-03T20:12:27.670Z,101241.47
2022-08-03T20:14:58.510Z,101243.94
2022-08-03T20:17:31.227Z,101241.19
2022-08-03T20:20:15.604Z,101244.03
2022-08-03T20:22:51.367Z,101239.84
2022-08-03T20:28:26.836Z,101235.03
2022-08-03T20:30:56.054Z,101230.22
2022-08-03T20:33:27.582Z,101236.00
2022-08-03T20:36:03.460Z,101230.34
2022-08-03T20:38:31.634Z,101233.00
2022-08-03T20:41:01.141Z,101246.63
2022-08-03T20:43:29.256Z,101243.03
2022-08-03T20:46:00.810Z,101246.50
2022-08-03T20:48:48.715Z,101259.50
2022-08-03T20:51:20.202Z,101245.13
2022-08-03T20:53:57.032Z,101240.06
2022-08-03T20:56:32.288Z,101247.09
2022-08-03T20:59:03.039Z,101241.97
2022-08-03T21:01:36.152Z,101245.69
2022-08-03T21:04:06.780Z,101242.88
2022-08-03T21:06:39.702Z,101240.78
2022-08-03T21:09:09.914Z,101242.19
2022-08-03T21:11:45.504Z,101243.34
2022-08-03T21:13:01.365Z,101224.13
2022-08-03T21:13:13.426Z,101237.31
2022-08-03T21:14:19.950Z,101239.97
2022-08-03T21:16:51.625Z,101240.97
2022-08-03T21:19:22.395Z,101234.66
2022-08-03T21:21:51.017Z,101230.31
2022-08-03T21:24:22.755Z,101226.69
2022-08-03T21:26:54.997Z,101222.69
2022-08-03T21:29:24.604Z,101221.81
2022-08-03T21:31:52.797Z,101217.63
2022-08-03T21:34:21.816Z,101211.53
2022-08-03T21:36:50.386Z,101210.94
2022-08-03T21:39:18.823Z,101213.19
2022-08-03T21:41:47.215Z,101210.50
2022-08-03T21:44:25.263Z,101208.09
2022-08-03T21:47:00.022Z,101208.00
2022-08-03T21:50:05.846Z,101208.56
2022-08-03T21:52:22.665Z,101206.69
2022-08-03T21:54:55.258Z,101208.84
2022-08-03T21:57:25.125Z,101202.19
2022-08-03T21:59:57.894Z,101201.25
2022-08-03T22:02:31.309Z,101195.97
2022-08-03T22:05:00.592Z,101195.31
2022-08-03T22:07:34.524Z,101201.56
2022-08-03T22:10:04.220Z,101194.63
2022-08-03T22:12:33.391Z,101195.84
2022-08-03T22:15:05.483Z,101191.09
2022-08-03T22:17:56.084Z,101188.78
2022-08-03T22:20:23.362Z,101186.38
2022-08-03T22:22:56.637Z,101185.31
2022-08-03T22:25:29.088Z,101187.56
2022-08-03T22:27:59.681Z,101194.03
2022-08-03T22:30:29.610Z,101192.72
2022-08-03T22:32:58.970Z,101195.03
2022-08-03T22:35:28.540Z,101187.34
2022-08-03T22:37:59.486Z,101193.09
2022-08-03T22:40:28.810Z,101187.97
2022-08-03T22:42:58.260Z,101197.34
2022-08-03T22:46:06.817Z,101193.50
2022-08-03T22:48:18.028Z,101200.09
2022-08-03T22:50:47.530Z,101195.91
2022-08-03T22:53:20.264Z,101203.66
2022-08-03T22:55:49.441Z,101196.25
2022-08-03T22:58:17.874Z,101194.97
2022-08-03T23:00:53.761Z,101194.97
2022-08-03T23:03:58.994Z,101191.66
2022-08-03T23:06:17.309Z,101187.84
2022-08-03T23:08:47.293Z,101189.25
2022-08-03T23:11:17.991Z,101186.66
2022-08-03T23:13:47.777Z,101183.72
2022-08-03T23:16:27.944Z,101178.97
2022-08-03T23:19:00.276Z,101181.03
2022-08-03T23:21:53.733Z,101174.97
2022-08-03T23:24:30.496Z,101182.72
2022-08-03T23:26:59.375Z,101176.72
2022-08-03T23:29:27.745Z,101178.09
2022-08-03T23:31:57.376Z,101180.63
2022-08-03T23:34:46.135Z,101175.88
2022-08-03T23:37:15.507Z,101183.06
2022-08-03T23:39:47.200Z,101179.56
2022-08-03T23:42:18.172Z,101181.06
2022-08-03T23:44:47.076Z,101181.38
2022-08-03T23:47:15.407Z,101176.91
2022-08-03T23:49:45.612Z,101175.41
2022-08-03T23:52:19.928Z,101171.88
2022-08-03T23:55:05.283Z,101173.41
2022-08-03T23:57:44.325Z,101170.91
